Weather observations for the past three days for
Fernandina Beach Municipal Airport
Metric (Imperial)
Date Time (edt) Wind (kph) Vis. (km) Weather Sky Cond. Temperature (ºC) Relative Humidity Wind Chill (°C) Heat Index (°C) Pressure Precipitation (cm)
Air Dwpt 6 hour altimeter (cm) sea level (mb) 1 hr 3 hr 6 hr
Max. Min.
06 03:15 S 13 16.09 Fair CLR 20 15 73% 76.2 0.0
06 02:55 S 11 16.09 Fair CLR 20 15 73% 76.23 0.0
06 02:35 S 11 16.09 Fair CLR 20 16 78% 76.23 0.0
06 02:15 S 9 16.09 Fair CLR 20 16 78% 76.25 0.0
06 01:55 S 7 16.09 Fair CLR 20 16 78% 76.28 0.0
06 01:35 SW 9 16.09 Fair CLR 19 15 78% 76.28 0.0
06 01:15 S 7 16.09 Fair CLR 19 15 78% 76.28 0.0
06 00:55 Calm 16.09 Fair CLR 19 14 73% 76.3 0.0
06 00:35 S 6 16.09 Fair CLR 19 14 73% 76.3 0.0
06 00:15 S 9 16.09 Fair CLR 20 14 69% 76.3 0.0
05 23:55 S 7 16.09 Fair CLR 21 14 64% 76.3 0.0
05 23:35 S 7 16.09 Fair CLR 21 14 64% 76.3 0.0
05 23:15 S 9 16.09 Fair CLR 22 15 65% 76.3 0.0
05 22:55 S 11 16.09 Fair CLR 22 15 65% 76.28 0.0
05 22:35 SE 15 16.09 Fair CLR 22 14 61% 76.28 0.0
05 22:15 SE 19 16.09 Fair CLR 22 14 61% 76.25 0.0
05 21:55 SE 19 16.09 Fair CLR 22 14 61% 76.25 0.0
05 21:35 SE 17 16.09 Fair CLR 22 14 61% 76.25 0.0
05 21:15 SE 17 16.09 Fair CLR 22 14 61% 76.23 0.0
05 20:55 SE 17 16.09 Fair CLR 22 14 61% 76.23 0.0
05 20:35 SE 17 16.09 Fair CLR 22 14 61% 76.23 0.0
05 20:15 SE 17 16.09 Fair CLR 22 14 61% 76.23 0.0
05 19:55 SE 15 16.09 Fair CLR 22 14 61% 76.2 0.0
05 19:35 SE 17 16.09 Fair CLR 23 14 57% 76.23 0.0
05 19:15 SE 20 16.09 Fair CLR 23 15 61% 76.2 0.0
05 18:55 SE 19 16.09 Fair CLR 23 15 61% 76.2 0.0
05 18:35 SE 19 16.09 Fair CLR 24 15 57% 25 76.23 0.0
05 18:15 SE 20 G 30 11.27 Fair CLR 24 15 57% 25 76.2 0.0
05 17:55 SE 19 G 28 16.09 Fair CLR 24 15 57% 25 76.23 0.0
05 17:35 SE 19 16.09 Fair CLR 25 15 54% 26 76.23 0.0
05 17:15 SE 19 16.09 Fair CLR 25 15 54% 26 76.23 0.0
05 16:55 SE 20 16.09 Fair CLR 25 15 54% 26 76.23 0.0
05 16:35 SE 19 16.09 Fair CLR 24 14 54% 25 76.25 0.0
05 16:15 SE 22 16.09 Fair CLR 25 14 51% 26 76.28 0.0
05 15:55 SE 20 G 28 16.09 Fair CLR 25 14 51% 26 76.28 0.0
05 15:35 SE 22 16.09 Fair CLR 25 13 47% 26 76.28 0.0
05 15:15 E 24 11.27 Fair CLR 25 15 54% 26 76.3 0.0
05 14:55 SE 20 16.09 Fair CLR 25 15 54% 26 76.3 0.0
05 14:35 SE 22 16.09 Fair CLR 25 14 51% 26 76.33 0.0
05 14:15 SE 19 16.09 Fair CLR 25 15 54% 26 76.33 0.0
05 13:55 SE 22 8.05 Fair with Haze CLR 25 15 54% 26 76.35 0.0
05 13:35 SE 20 16.09 Fair CLR 25 15 54% 26 76.35 0.0
05 13:15 SE 19 16.09 Fair CLR 24 14 54% 25 76.35 0.0
05 12:55 SE 19 16.09 Fair CLR 25 15 54% 26 76.38 0.0
05 12:35 SE 17 16.09 Fair CLR 25 15 54% 26 76.38 0.0
05 12:15 SE 17 16.09 Fair CLR 24 15 57% 25 76.38 0.0
05 11:55 E 17 16.09 Fair CLR 25 15 54% 26 76.38 0.0
05 11:15 SE 13 16.09 Fair CLR 25 14 51% 26 76.38 0.0
05 10:55 SE 17 16.09 Fair CLR 24 15 57% 25 76.38 0.0
05 10:35 SE 17 16.09 Fair CLR 24 15 57% 25 76.38 0.0
05 10:15 SE 13 16.09 Fair CLR 24 15 57% 25 76.35 0.0
05 09:55 S 13 16.09 Fair CLR 24 14 54% 25 76.38 0.0
05 09:35 SE 13 16.09 Fair CLR 24 14 54% 25 76.35 0.0
05 09:15 SE 17 16.09 Fair CLR 23 14 57% 76.33 0.0
05 08:55 SE 15 16.09 Fair CLR 23 15 61% 76.33 0.0
05 08:35 SE 11 16.09 Fair CLR 23 15 61% 76.33 0.0
05 08:15 Calm 16.09 Fair CLR 21 16 73% 76.3 0.0
05 07:55 Calm 16.09 Fair CLR 19 15 78% 76.3 0.0
05 07:35 Calm 16.09 Fair CLR 17 14 83% 76.3 0.0
05 07:15 Calm 16.09 Fair CLR 16 13 83% 76.28 0.0
05 06:55 Calm 16.09 Fair CLR 15 13 88% 76.25 0.0
05 06:35 Calm 16.09 Fair CLR 15 12 82% 76.25 0.0
05 06:15 Calm 16.09 Fair CLR 15 12 82% 76.25 0.0
05 05:55 Calm 16.09 Fair CLR 15 12 82% 76.23 0.0
05 05:35 Calm 16.09 Fair CLR 16 12 77% 76.23 0.0
05 05:15 Calm 16.09 Fair CLR 16 12 77% 76.2 0.0
05 04:55 Calm 16.09 Fair CLR 17 12 73% 76.2 0.0
05 04:35 Calm 16.09 Fair CLR 17 12 73% 76.2 0.0
05 04:15 Calm 16.09 Fair CLR 16 12 77% 76.17 0.0
05 03:55 Calm 16.09 Fair CLR 18 13 73% 76.2 0.0
05 03:35 Calm 16.09 Fair CLR 18 12 68% 76.2 0.0
05 03:15 Calm 16.09 Fair CLR 17 12 73% 76.23 0.0
05 02:55 S 6 16.09 Fair CLR 18 12 68% 76.23 0.0
05 02:35 Calm 16.09 Fair CLR 17 12 73% 76.25 0.0
05 02:15 S 7 16.09 Fair CLR 19 12 64% 76.28 0.0
05 01:55 SE 6 16.09 Fair CLR 19 12 64% 76.28 0.0
05 01:35 SE 9 16.09 Fair CLR 19 12 64% 76.3 0.0
05 01:15 SE 11 16.09 Fair CLR 20 12 60% 76.3 0.0
05 00:55 SE 13 16.09 Fair CLR 20 12 60% 76.33 0.0
05 00:35 SE 15 16.09 Fair CLR 21 12 57% 76.33 0.0
05 00:15 SE 15 16.09 Fair CLR 21 12 57% 76.33 0.0
04 23:55 SE 13 16.09 Fair CLR 21 12 57% 76.33 0.0
04 23:35 SE 19 16.09 Fair CLR 21 12 57% 76.33 0.0
04 23:15 SE 19 16.09 Fair CLR 21 12 57% 76.33 0.0
04 22:55 SE 17 16.09 Fair CLR 21 12 57% 76.33 0.0
04 22:35 SE 19 16.09 Fair CLR 21 13 60% 76.33 0.0
04 22:15 SE 20 16.09 Fair CLR 21 12 57% 76.33 0.0
04 21:55 SE 15 16.09 Fair CLR 21 12 57% 76.33 0.0
04 21:35 SE 17 16.09 Fair CLR 21 12 57% 76.3 0.0
04 21:15 SE 15 16.09 Fair CLR 21 13 60% 76.3 0.0
04 20:55 SE 15 16.09 Fair CLR 21 13 60% 76.3 0.0
04 20:35 SE 13 16.09 Fair CLR 21 13 60% 76.3 0.0
04 20:15 SE 15 16.09 Fair CLR 21 13 60% 76.3 0.0
04 19:55 SE 15 16.09 Fair CLR 21 13 60% 76.28 0.0
04 19:35 SE 17 16.09 Fair CLR 22 13 57% 76.28 0.0
04 19:15 SE 19 16.09 Fair CLR 22 13 57% 76.28 0.0
04 18:55 SE 19 16.09 Partly Cloudy SCT041 SCT048 22 13 57% 76.28 0.0
04 18:15 E 17 16.09 Fair CLR 23 13 53% 76.28 0.0
04 17:55 E 19 16.09 Fair CLR 23 13 53% 76.28 0.0
04 17:35 E 17 16.09 Fair CLR 24 12 47% 25 76.28 0.0
04 17:15 E 19 16.09 Fair CLR 23 12 50% 76.3 0.0
04 16:55 E 19 16.09 Fair CLR 24 12 47% 25 76.3 0.0
04 16:35 E 19 16.09 Fair CLR 24 11 44% 25 76.3 0.0
04 15:55 E 17 16.09 Fair CLR 24 11 44% 25 76.33 0.0
04 15:35 E 19 16.09 Fair CLR 24 10 41% 25 76.35 0.0
04 15:15 E 17 16.09 Fair CLR 24 10 41% 25 76.35 0.0
04 14:55 SE 13 16.09 Fair CLR 24 10 41% 25 76.38 0.0
04 14:35 E 15 16.09 Fair CLR 24 9 39% 25 76.4 0.0
04 14:15 E 15 16.09 Fair CLR 24 9 39% 25 76.4 0.0
04 13:55 E 15 16.09 Fair CLR 24 8 36% 25 76.43 0.0
04 13:35 E 13 16.09 Fair CLR 24 8 36% 25 76.43 0.0
04 13:15 E 17 16.09 Fair CLR 24 8 36% 25 76.43 0.0
04 12:55 E 17 16.09 Fair CLR 24 7 34% 25 76.43 0.0
04 12:35 E 17 16.09 Fair CLR 24 8 36% 25 76.45 0.0
04 12:15 E 13 G 26 16.09 Fair CLR 24 8 36% 25 76.45 0.0
04 11:55 E 19 16.09 Fair CLR 24 8 36% 25 76.45 0.0
04 11:35 E 20 11.27 Fair CLR 23 7 36% 76.45 0.0
04 11:15 E 17 16.09 Fair CLR 24 7 34% 25 76.45 0.0
04 10:55 E 13 16.09 Fair CLR 23 7 36% 76.45 0.0
04 10:35 E 9 16.09 Fair CLR 24 7 34% 25 76.45 0.0
04 10:15 E 13 16.09 Fair CLR 23 7 36% 76.45 0.0
04 09:55 E 17 16.09 Partly Cloudy SCT055 23 8 38% 76.45 0.0
04 09:35 NE 11 16.09 Partly Cloudy SCT055 23 9 41% 76.45 0.0
04 09:15 N 9 16.09 Fair CLR 22 13 57% 76.43 0.0
04 08:55 Calm 16.09 Fair CLR 21 14 64% 76.43 0.0
04 08:35 Calm 16.09 Fair CLR 20 15 73% 76.43 0.0
04 08:15 Calm 16.09 Fair CLR 18 15 83% 76.43 0.0
04 07:55 Calm 16.09 Fair CLR 16 15 94% 76.4 0.0
04 07:35 Calm 16.09 Fair CLR 14 13 94% 76.4 0.0
04 07:15 Calm 16.09 Fair CLR 13 12 94% 76.38 0.0
04 06:55 Calm 16.09 Fair CLR 13 12 94% 76.38 0.0
04 06:35 Calm 11.27 Fog/Mist CLR 13 12 94% 76.38 0.0
04 06:15 Calm 0.40 Fog VV002 13 12 94% 76.35 0.0
04 05:55 Calm 16.09 Fair CLR 13 12 94% 76.38 0.0
04 05:35 Calm 16.09 Fair CLR 13 12 94% 76.35 0.0
04 05:15 Calm 16.09 Fair CLR 14 11 82% 76.38 0.0
04 04:55 Calm 16.09 Fair CLR 13 11 88% 76.35 0.0
04 04:35 Calm 16.09 Fair CLR 13 11 88% 76.35 0.0
04 04:15 Calm 16.09 Fair CLR 13 11 88% 76.38 0.0
04 03:55 Calm 16.09 Fair CLR 14 12 88% 76.38 0.0
04 03:35 Calm 16.09 Fair CLR 14 12 88% 76.38 0.0
04 03:15 Calm 16.09 Fair CLR 15 12 82% 76.38 0.0
04 02:55 Calm 16.09 Fair CLR 15 12 82% 76.4 0.0
04 02:35 Calm 16.09 Fair CLR 16 12 77% 76.4 0.0
04 02:15 Calm 16.09 Fair CLR 16 12 77% 76.4 0.0
04 01:55 Calm 16.09 Fair CLR 17 12 73% 76.43 0.0
04 01:35 SE 7 16.09 Fair CLR 19 13 68% 76.45 0.0
04 01:15 SE 7 16.09 Fair CLR 19 13 68% 76.45 0.0
04 00:55 SE 11 16.09 Fair CLR 19 13 68% 76.45 0.0
04 00:35 SE 11 16.09 Fair CLR 19 13 68% 76.45 0.0
04 00:15 SE 11 16.09 Fair CLR 19 13 68% 76.45 0.0
03 23:55 SE 11 16.09 Fair CLR 19 13 68% 76.45 0.0
03 23:35 SE 11 16.09 Fair CLR 19 13 68% 76.45 0.0
03 23:15 SE 13 16.09 Fair CLR 19 13 68% 76.45 0.0
03 22:55 SE 13 16.09 Fair CLR 19 13 68% 76.48 0.0
03 22:35 E 15 16.09 Fair CLR 19 13 68% 76.45 0.0
03 22:15 E 11 16.09 Fair CLR 19 13 68% 76.45 0.0
03 21:55 E 15 16.09 Fair CLR 19 12 64% 76.43 0.0
03 21:35 E 17 16.09 Fair CLR 19 12 64% 76.4 0.0
03 21:15 E 15 16.09 Fair CLR 19 12 64% 76.38 0.0
03 20:55 E 13 16.09 Fair CLR 19 12 64% 76.38 0.0
03 20:35 E 15 16.09 Fair CLR 19 11 60% 76.38 0.0
03 20:15 E 13 16.09 Fair CLR 19 11 60% 76.38 0.0
03 19:55 E 11 16.09 Fair CLR 19 11 60% 76.38 0.0
03 19:35 E 11 16.09 Fair CLR 20 11 56% 76.38 0.0
03 19:15 E 15 16.09 Fair CLR 20 11 56% 76.38 0.0
03 18:55 E 9 16.09 Fair CLR 20 10 53% 76.38 0.0
03 18:35 E 13 16.09 Fair CLR 20 10 53% 76.38 0.0
03 18:15 E 15 16.09 Fair CLR 21 10 50% 76.38 0.0
03 17:55 E 15 16.09 Fair CLR 21 10 50% 76.38 0.0
03 17:35 E 17 16.09 Fair CLR 22 11 50% 76.38 0.0
03 17:15 E 19 16.09 Fair CLR 21 11 53% 76.38 0.0
03 16:55 E 17 16.09 Fair CLR 21 11 53% 76.38 0.0
03 16:35 E 19 16.09 Fair CLR 21 11 53% 76.38 0.0
03 16:15 E 19 16.09 Fair CLR 22 11 50% 76.4 0.0
03 15:55 E 22 16.09 Fair CLR 21 11 53% 76.43 0.0
03 15:35 E 17 16.09 Fair CLR 22 12 53% 76.45 0.0
03 15:15 E 22 16.09 Fair CLR 22 12 53% 76.48 0.0
03 14:55 NE 19 G 33 16.09 Fair CLR 22 12 53% 76.5 0.0
03 14:35 E 13 G 30 16.09 Fair CLR 22 12 53% 76.5 0.0
03 14:15 E 19 16.09 Fair CLR 22 12 53% 76.5 0.0
03 13:55 E 17 G 28 16.09 Partly Cloudy SCT050 22 12 53% 76.53 0.0
03 13:35 E 19 16.09 Partly Cloudy SCT034 SCT042 21 12 57% 76.53 0.0
03 13:15 NE 17 16.09 Partly Cloudy SCT034 SCT042 21 12 57% 76.53 0.0
03 12:55 NE 17 16.09 Partly Cloudy SCT031 SCT043 21 12 57% 76.56 0.0
03 12:35 NE 11 16.09 Partly Cloudy SCT033 SCT043 21 12 57% 76.56 0.0
03 12:15 NE 20 16.09 Fair CLR 21 12 57% 76.56 0.0
03 11:55 NE 24 16.09 Fair CLR 21 12 57% 76.53 0.0
03 11:35 NE 20 16.09 Fair CLR 21 12 57% 76.56 0.0
03 11:15 NE 22 16.09 Partly Cloudy SCT030 20 11 56% 76.56 0.0
03 10:35 NE 22 16.09 Mostly Cloudy BKN024 BKN032 BKN048 20 12 60% 76.53 0.0
03 10:15 NE 19 16.09 Mostly Cloudy SCT022 BKN035 BKN042 19 13 68% 76.53 0.0
03 09:55 N 17 16.09 Mostly Cloudy BKN017 BKN025 18 13 73% 76.5 0.0
03 09:35 N 11 16.09 Mostly Cloudy BKN017 18 14 78% 76.48 0.0
03 09:15 N 15 16.09 Partly Cloudy SCT014 SCT019 18 14 78% 76.45 0.0
03 08:55 N 13 16.09 Partly Cloudy SCT013 17 14 83% 76.45 0.0
03 08:35 N 17 16.09 Fair CLR 16 14 88% 76.45 0.0
03 08:15 N 15 16.09 Fair CLR 16 13 83% 76.45 0.0
03 07:55 N 15 16.09 Partly Cloudy SCT013 15 13 88% 76.43 0.0
03 07:35 N 13 16.09 Partly Cloudy SCT013 14 12 88% 76.43 0.0
03 07:15 N 13 16.09 Partly Cloudy SCT010 14 13 94% 76.4 0.0
03 06:55 N 13 16.09 Partly Cloudy SCT010 14 13 94% 76.4 0.0
03 06:35 N 15 16.09 Fair CLR 14 12 88% 76.35 0.0
03 06:15 N 13 16.09 Fair CLR 14 12 88% 76.35 0.0
03 05:55 NW 11 16.09 Fair CLR 14 13 94% 76.35 0.0
03 05:35 NW 11 16.09 Partly Cloudy SCT005 14 13 94% 76.3 0.0
03 05:15 NW 11 16.09 Partly Cloudy SCT005 14 13 94% 76.3 0.0
03 04:55 N 9 16.09 Partly Cloudy SCT007 14 13 94% 76.3 0.0
03 04:35 NW 11 16.09 Fair CLR 14 13 94% 76.3 0.0
03 04:15 N 9 16.09 Fair CLR 14 13 94% 76.28 0.0
03 03:55 NW 9 16.09 Fair CLR 14 13 94% 76.3 0.0
03 03:35 N 13 16.09 Fair CLR 15 13 88% 76.28 0.0
Date Time (edt) Wind (kph) Vis. (km) Weather Sky Cond. Air Dwpt Max. Min. Relative Humidity Wind Chill (°C) Heat Index (°C) altimeter (cm) sea level (mb) 1 hr 3 hr 6 hr
6 hour
Temperature (ºC) Pressure Precipitation (cm)